Izumo Princess — SXMB — position and weather

sailwx.info

Track history (hours):
 
Tides and Currents Weather Stations Pressure Air Temp Water Temp Dewpoint Dewpoint Depression Visibility Wind Speed Wind Dir Waves Ship Positions

Izumo Princess

Last reported at 2017-Feb-27 06:20 UTC. Time now 2017-Feb-27 06:56 UTC.
Position N 44°38' E 037°37'.

Length 229 m; draft 8 m.

Type: Tanker. MMSI: 240611000.

Date/timePositionNaut miles runAvg speedWind from/ knotsBaromVisibWave heightAir tempDewpointWater temp
2017-Feb-27 06:20N 44°38' E 037°37'0 0.0
2017-Feb-27 05:32N 44°38' E 037°37'0 0.0
2017-Feb-27 04:32N 44°38' E 037°37'0 0.0
2017-Feb-27 02:29N 44°38' E 037°37'0 0.0
2017-Feb-27 01:26N 44°38' E 037°37'0 0.0
2017-Feb-27 00:17N 44°38' E 037°37'0 0.0
2017-Feb-26 23:32N 44°38' E 037°37'0 0.0
2017-Feb-26 22:32N 44°38' E 037°37'0 0.0
2017-Feb-26 21:29N 44°38' E 037°37'0 0.0
2017-Feb-26 20:32N 44°38' E 037°37'0 0.0
2017-Feb-26 19:32N 44°38' E 037°37'0 0.0
2017-Feb-26 18:32N 44°38' E 037°37'0 0.2
2017-Feb-26 17:33N 44°38' E 037°37'3 3.4
2017-Feb-26 16:33N 44°34' E 037°37'0 0.5
2017-Feb-26 15:33N 44°35' E 037°37'4 4.3
2017-Feb-26 14:33N 44°31' E 037°34'1 0.6
2017-Feb-26 13:34N 44°31' E 037°34'1 0.8
2017-Feb-26 12:33N 44°30' E 037°32'3 3.1
2017-Feb-26 11:34N 44°33' E 037°33'1 1.4
2017-Feb-26 10:33N 44°35' E 037°34'1 1.3
2017-Feb-26 09:33N 44°34' E 037°33'1 1.4
2017-Feb-26 08:33N 44°33' E 037°31'2 1.7
2017-Feb-26 07:33N 44°32' E 037°29'7 7.1
2017-Feb-26 06:33N 44°30' E 037°38'8 8.0
2017-Feb-26 05:33N 44°30' E 037°50'1 1.0
2017-Feb-26 04:33N 44°30' E 037°48'1 1.4
2017-Feb-26 03:33N 44°30' E 037°46'2 1.5
2017-Feb-26 02:33N 44°30' E 037°44'1 1.4
2017-Feb-26 01:33N 44°30' E 037°42'1 1.2
2017-Feb-26 00:33N 44°30' E 037°40'2 1.6
2017-Feb-25 23:33N 44°30' E 037°38'2 1.7
2017-Feb-25 22:33N 44°30' E 037°36'2 2.1
2017-Feb-25 21:32N 44°31' E 037°33'2 2.3
2017-Feb-25 20:34N 44°31' E 037°30'2 1.7
2017-Feb-25 19:33N 44°32' E 037°28'7 6.7
2017-Feb-25 18:32N 44°31' E 037°37'2 1.9
2017-Feb-25 17:34N 44°33' E 037°36'2 2.1
2017-Feb-25 16:33N 44°32' E 037°33'1 1.3
2017-Feb-25 15:33N 44°31' E 037°32'0 0.3
2017-Feb-25 14:33N 44°31' E 037°32'2 1.9
2017-Feb-25 13:33N 44°31' E 037°34'1 0.5
2017-Feb-25 12:33N 44°31' E 037°34'5 4.7
2017-Feb-25 11:33N 44°35' E 037°32'2 1.7
2017-Feb-25 10:33N 44°36' E 037°29'2 1.7
2017-Feb-25 09:34N 44°35' E 037°28'2 1.5
2017-Feb-25 08:33N 44°33' E 037°28'6 6.4
2017-Feb-25 07:33N 44°39' E 037°25'2 1.3
2017-Feb-25 06:19N 44°38' E 037°27'2 1.5
2017-Feb-25 05:14N 44°36' E 037°27'1 1.5
2017-Feb-25 04:29N 44°35' E 037°27'1 1.4
2017-Feb-25 03:28N 44°34' E 037°28'2 2.4
2017-Feb-25 02:33N 44°36' E 037°27'1 0.9
2017-Feb-25 01:04N 44°37' E 037°27'1 1.4
2017-Feb-25 00:31N 44°37' E 037°28'1 1.4
2017-Feb-24 23:33N 44°35' E 037°28'1 1.4
2017-Feb-24 22:33N 44°34' E 037°29'2 1.5
2017-Feb-24 21:24N 44°33' E 037°30'1 1.0
2017-Feb-24 20:33N 44°33' E 037°29'7 6.9
2017-Feb-24 19:33N 44°39' E 037°24'2 1.2
2017-Feb-24 17:28N 44°37' E 037°26'2 1.6
2017-Feb-24 16:29N 44°36' E 037°27'2 1.8
2017-Feb-24 15:24N 44°34' E 037°28'2 2.0
2017-Feb-24 14:34N 44°33' E 037°29'2 2.1
2017-Feb-24 13:33N 44°31' E 037°31'3 3.3
2017-Feb-24 12:34N 44°33' E 037°34'4 3.6
2017-Feb-24 11:33N 44°36' E 037°30'2 1.5
2017-Feb-24 10:32N 44°35' E 037°29'1 1.5
2017-Feb-24 09:34N 44°33' E 037°28'3 3.3
2017-Feb-24 08:34N 44°36' E 037°30'1 0.7
2017-Feb-24 07:32N 44°36' E 037°30'1 1.0
2017-Feb-24 06:34N 44°35' E 037°29'1 0.9
2017-Feb-24 05:33N 44°35' E 037°28'1 0.5
2017-Feb-24 04:31N 44°34' E 037°28'1 0.5
2017-Feb-24 03:32N 44°34' E 037°27'1 0.6
2017-Feb-24 02:32N 44°34' E 037°26'1 0.7
2017-Feb-24 01:34N 44°34' E 037°25'2 1.7
2017-Feb-24 00:33N 44°35' E 037°26'3 2.4
2017-Feb-23 23:31N 44°38' E 037°27'1 1.5
2017-Feb-23 22:33N 44°36' E 037°27'2 1.3
2017-Feb-23 21:19N 44°35' E 037°26'0 0.4
2017-Feb-23 20:33N 44°35' E 037°26'1 0.6
2017-Feb-23 19:33N 44°35' E 037°26'2 1.5
2017-Feb-23 18:33N 44°33' E 037°26'2 1.8
2017-Feb-23 17:30N 44°32' E 037°28'1 1.5
2017-Feb-23 16:33N 44°33' E 037°27'6 5.7
2017-Feb-23 15:34N 44°31' E 037°34'5 4.8
2017-Feb-23 14:34N 44°30' E 037°41'2 2.2
2017-Feb-23 13:34N 44°33' E 037°41'1 1.4
2017-Feb-23 12:34N 44°32' E 037°39'2 1.5
2017-Feb-23 11:33N 44°31' E 037°39'2 1.5
2017-Feb-23 10:34N 44°32' E 037°40'3 2.9
2017-Feb-23 09:33N 44°34' E 037°38'3 3.0
2017-Feb-23 08:33N 44°33' E 037°35'2 1.6
2017-Feb-23 07:33N 44°31' E 037°33'9 8.6
2017-Feb-23 06:33N 44°32' E 037°45'2 1.7
2017-Feb-23 05:33N 44°32' E 037°43'2 1.7
2017-Feb-23 04:33N 44°31' E 037°41'1 1.4
2017-Feb-23 03:33N 44°31' E 037°39'1 1.1
2017-Feb-23 02:33N 44°31' E 037°37'1 1.1
2017-Feb-23 01:33N 44°31' E 037°36'1 0.9
2017-Feb-23 00:33N 44°32' E 037°35'1 0.7
2017-Feb-22 23:33N 44°32' E 037°34'1 0.9
2017-Feb-22 22:33N 44°32' E 037°33'1 1.1
2017-Feb-22 21:33N 44°34' E 037°32'1 1.5
2017-Feb-22 20:33N 44°35' E 037°32'2 1.7
2017-Feb-22 19:33N 44°36' E 037°30'2 1.8
2017-Feb-22 18:33N 44°38' E 037°29'5 4.8
2017-Feb-22 17:33N 44°33' E 037°32'5 5.2
2017-Feb-22 16:33N 44°31' E 037°38'1 1.0
2017-Feb-22 15:33N 44°32' E 037°37'1 0.9
2017-Feb-22 14:33N 44°32' E 037°36'1 0.8
2017-Feb-22 13:33N 44°32' E 037°35'1 1.0
2017-Feb-22 12:34N 44°32' E 037°34'4 3.7
2017-Feb-22 11:34N 44°32' E 037°39'1 1.4
2017-Feb-22 10:34N 44°33' E 037°37'2 1.6
2017-Feb-22 09:34N 44°33' E 037°35'1 1.2
2017-Feb-22 08:34N 44°32' E 037°34'7 6.9
2017-Feb-22 07:33N 44°32' E 037°43'2 1.9
2017-Feb-22 06:33N 44°33' E 037°46'2 2.5
2017-Feb-22 05:34N 44°32' E 037°43'2 2.2
2017-Feb-22 04:33N 44°31' E 037°40'2 1.8
2017-Feb-22 03:34N 44°31' E 037°37'1 0.6
2017-Feb-22 02:33N 44°30' E 037°38'7 6.8
2017-Feb-22 01:34N 44°31' E 037°47'3 3.2
2017-Feb-22 00:34N 44°32' E 037°51'2 2.3
2017-Feb-21 23:34N 44°32' E 037°48'2 2.0
2017-Feb-21 22:33N 44°32' E 037°45'2 1.7
2017-Feb-21 21:33N 44°32' E 037°43'2 1.6
2017-Feb-21 20:34N 44°32' E 037°41'1 1.4
2017-Feb-21 19:33N 44°32' E 037°39'1 1.4
2017-Feb-21 18:34N 44°33' E 037°37'2 1.5
2017-Feb-21 17:34N 44°33' E 037°35'1 1.4
2017-Feb-21 16:33N 44°34' E 037°33'2 1.5
2017-Feb-21 15:34N 44°34' E 037°31'3 3.3
2017-Feb-21 14:34N 44°37' E 037°33'0 0.4
2017-Feb-21 13:34N 44°36' E 037°33'2 1.7
2017-Feb-21 12:34N 44°35' E 037°32'2 1.9
2017-Feb-21 11:34N 44°33' E 037°32'2 1.8
2017-Feb-21 10:33N 44°31' E 037°33'2 1.6
2017-Feb-21 09:33N 44°30' E 037°34'5 5.0
2017-Feb-21 08:33N 44°35' E 037°35'0 0.3
2017-Feb-21 07:33N 44°35' E 037°35'2 1.6
2017-Feb-21 06:33N 44°33' E 037°36'2 1.5
2017-Feb-21 05:33N 44°32' E 037°36'4 4.3
2017-Feb-21 04:33N 44°36' E 037°33'1 1.1
2017-Feb-21 03:33N 44°37' E 037°32'2 1.8
2017-Feb-21 02:33N 44°35' E 037°33'1 1.5
2017-Feb-21 01:33N 44°34' E 037°35'1 1.3
2017-Feb-21 00:33N 44°33' E 037°36'0 0.5
2017-Feb-20 23:33N 44°33' E 037°36'8 8.2
2017-Feb-20 22:32N 44°36' E 037°25'1 1.1
2017-Feb-20 21:30N 44°37' E 037°24'2 1.6
2017-Feb-20 20:33N 44°36' E 037°26'1 1.5
2017-Feb-20 19:33N 44°36' E 037°28'2 1.5
2017-Feb-20 18:33N 44°35' E 037°30'2 1.6
2017-Feb-20 17:33N 44°35' E 037°33'2 1.5
2017-Feb-20 16:33N 44°35' E 037°35'1 0.7
2017-Feb-20 15:33N 44°35' E 037°36'5 4.9
2017-Feb-20 14:33N 44°34' E 037°29'4 3.8
2017-Feb-20 13:33N 44°34' E 037°23'5 5.5
2017-Feb-20 12:34N 44°31' E 037°30'2 2.2
2017-Feb-20 11:33N 44°33' E 037°29'2 2.3
2017-Feb-20 10:33N 44°32' E 037°32'2 2.2
2017-Feb-20 09:33N 44°32' E 037°35'2 2.0
2017-Feb-20 08:33N 44°32' E 037°38'2 2.1
2017-Feb-20 07:33N 44°32' E 037°41'6 5.6
2017-Feb-20 06:33N 44°34' E 037°34'7 7.4
2017-Feb-20 05:33N 44°36' E 037°24'1 1.2
2017-Feb-20 04:34N 44°35' E 037°25'2 1.9
2017-Feb-20 03:33N 44°35' E 037°28'2 1.8
2017-Feb-20 02:33N 44°35' E 037°30'2 1.8
2017-Feb-20 01:33N 44°34' E 037°33'2 1.8
2017-Feb-20 00:34N 44°34' E 037°35'2 1.7
2017-Feb-19 23:33N 44°33' E 037°38'1 1.4
2017-Feb-19 22:33N 44°33' E 037°40'5 5.4
2017-Feb-19 21:33N 44°34' E 037°32'9 3.8
2017-Feb-19 19:16N 44°41' E 037°23'1 1.3
2017-Feb-19 18:32N 44°40' E 037°25'3 1.3
2017-Feb-19 16:33N 44°38' E 037°27'1 1.2
2017-Feb-19 15:30N 44°37' E 037°29'1 1.3
2017-Feb-19 14:33N 44°37' E 037°30'2 1.5
2017-Feb-19 13:30N 44°36' E 037°32'2 1.6
2017-Feb-19 12:33N 44°35' E 037°33'2 1.7
2017-Feb-19 11:33N 44°34' E 037°35'2 1.6
2017-Feb-19 10:33N 44°33' E 037°37'2 1.6
2017-Feb-19 09:33N 44°32' E 037°39'1 0.7
2017-Feb-19 08:33N 44°32' E 037°40'1 1.0
2017-Feb-19 07:33N 44°33' E 037°40'3 2.5
2017-Feb-19 06:34N 44°34' E 037°36'9 8.5
2017-Feb-19 05:33N 44°36' E 037°25'1 0.1
2017-Feb-19 00:29N 44°37' E 037°26'2 2.3
2017-Feb-18 23:28N 44°35' E 037°29'3 2.4
2017-Feb-18 22:19N 44°34' E 037°32'2 2.5
2017-Feb-18 21:33N 44°33' E 037°34'2 2.5
2017-Feb-18 20:33N 44°32' E 037°37'6 6.0
2017-Feb-18 19:33N 44°34' E 037°29'4 1.2
2017-Feb-18 16:32N 44°38' E 037°28'3 2.4
2017-Feb-18 15:29N 44°36' E 037°31'2 2.7
2017-Feb-18 14:33N 44°35' E 037°34'2 2.3
2017-Feb-18 13:33N 44°33' E 037°35'6 5.9
2017-Feb-18 12:33N 44°34' E 037°27'8 7.2
2017-Feb-18 11:29N 44°39' E 037°18'1 0.4
2017-Feb-18 09:06N 44°40' E 037°18'2 2.4
2017-Feb-18 08:22N 44°39' E 037°20'2 2.5
2017-Feb-18 07:32N 44°38' E 037°23'3 2.5
2017-Feb-18 06:33N 44°37' E 037°26'2 0.2
2017-Feb-17 20:07N 44°37' E 037°23'0 0.5
2017-Feb-17 19:20N 44°37' E 037°24'0 0.4
2017-Feb-17 18:33N 44°37' E 037°24'0 0.3
2017-Feb-17 17:23N 44°37' E 037°25'0 0.2
2017-Feb-17 16:29N 44°36' E 037°25'0 0.2
2017-Feb-17 15:18N 44°36' E 037°25'0 0.2
2017-Feb-17 14:28N 44°36' E 037°25'0 0.3
2017-Feb-17 13:33N 44°36' E 037°26'0 0.2
2017-Feb-17 12:22N 44°36' E 037°26'0 0.3
2017-Feb-17 11:32N 44°36' E 037°26'0 0.4
2017-Feb-17 10:33N 44°36' E 037°27'1 0.4
2017-Feb-17 09:26N 44°36' E 037°28'0 0.3
2017-Feb-17 08:33N 44°36' E 037°28'1 0.6
2017-Feb-17 07:33N 44°37' E 037°28'1 0.7
2017-Feb-17 06:33N 44°38' E 037°28'  
Track history (hours):
 
Tides and Currents Weather Stations Pressure Air Temp Water Temp Dewpoint Dewpoint Depression Visibility Wind Speed Wind Dir Waves Ship Positions

Izumo Princess

Last reported at 2017-Feb-27 06:20 UTC. Time now 2017-Feb-27 06:56 UTC.
Position N 44°38' E 037°37'.

Length 229 m; draft 8 m.

Type: Tanker. MMSI: 240611000.

Date/timePositionNaut miles runAvg speedWind from/ knotsBaromVisibWave heightAir tempDewpointWater temp
2017-Feb-27 06:20N 44°38' E 037°37'0 0.0
2017-Feb-27 05:32N 44°38' E 037°37'0 0.0
2017-Feb-27 04:32N 44°38' E 037°37'0 0.0
2017-Feb-27 02:29N 44°38' E 037°37'0 0.0
2017-Feb-27 01:26N 44°38' E 037°37'0 0.0
2017-Feb-27 00:17N 44°38' E 037°37'0 0.0
2017-Feb-26 23:32N 44°38' E 037°37'0 0.0
2017-Feb-26 22:32N 44°38' E 037°37'0 0.0
2017-Feb-26 21:29N 44°38' E 037°37'0 0.0
2017-Feb-26 20:32N 44°38' E 037°37'0 0.0
2017-Feb-26 19:32N 44°38' E 037°37'0 0.0
2017-Feb-26 18:32N 44°38' E 037°37'0 0.2
2017-Feb-26 17:33N 44°38' E 037°37'3 3.4
2017-Feb-26 16:33N 44°34' E 037°37'0 0.5
2017-Feb-26 15:33N 44°35' E 037°37'4 4.3
2017-Feb-26 14:33N 44°31' E 037°34'1 0.6
2017-Feb-26 13:34N 44°31' E 037°34'1 0.8
2017-Feb-26 12:33N 44°30' E 037°32'3 3.1
2017-Feb-26 11:34N 44°33' E 037°33'1 1.4
2017-Feb-26 10:33N 44°35' E 037°34'1 1.3
2017-Feb-26 09:33N 44°34' E 037°33'1 1.4
2017-Feb-26 08:33N 44°33' E 037°31'2 1.7
2017-Feb-26 07:33N 44°32' E 037°29'7 7.1
2017-Feb-26 06:33N 44°30' E 037°38'8 8.0
2017-Feb-26 05:33N 44°30' E 037°50'1 1.0
2017-Feb-26 04:33N 44°30' E 037°48'1 1.4
2017-Feb-26 03:33N 44°30' E 037°46'2 1.5
2017-Feb-26 02:33N 44°30' E 037°44'1 1.4
2017-Feb-26 01:33N 44°30' E 037°42'1 1.2
2017-Feb-26 00:33N 44°30' E 037°40'2 1.6
2017-Feb-25 23:33N 44°30' E 037°38'2 1.7
2017-Feb-25 22:33N 44°30' E 037°36'2 2.1
2017-Feb-25 21:32N 44°31' E 037°33'2 2.3
2017-Feb-25 20:34N 44°31' E 037°30'2 1.7
2017-Feb-25 19:33N 44°32' E 037°28'7 6.7
2017-Feb-25 18:32N 44°31' E 037°37'2 1.9
2017-Feb-25 17:34N 44°33' E 037°36'2 2.1
2017-Feb-25 16:33N 44°32' E 037°33'1 1.3
2017-Feb-25 15:33N 44°31' E 037°32'0 0.3
2017-Feb-25 14:33N 44°31' E 037°32'2 1.9
2017-Feb-25 13:33N 44°31' E 037°34'1 0.5
2017-Feb-25 12:33N 44°31' E 037°34'5 4.7
2017-Feb-25 11:33N 44°35' E 037°32'2 1.7
2017-Feb-25 10:33N 44°36' E 037°29'2 1.7
2017-Feb-25 09:34N 44°35' E 037°28'2 1.5
2017-Feb-25 08:33N 44°33' E 037°28'6 6.4
2017-Feb-25 07:33N 44°39' E 037°25'2 1.3
2017-Feb-25 06:19N 44°38' E 037°27'2 1.5
2017-Feb-25 05:14N 44°36' E 037°27'1 1.5
2017-Feb-25 04:29N 44°35' E 037°27'1 1.4
2017-Feb-25 03:28N 44°34' E 037°28'2 2.4
2017-Feb-25 02:33N 44°36' E 037°27'1 0.9
2017-Feb-25 01:04N 44°37' E 037°27'1 1.4
2017-Feb-25 00:31N 44°37' E 037°28'1 1.4
2017-Feb-24 23:33N 44°35' E 037°28'1 1.4
2017-Feb-24 22:33N 44°34' E 037°29'2 1.5
2017-Feb-24 21:24N 44°33' E 037°30'1 1.0
2017-Feb-24 20:33N 44°33' E 037°29'7 6.9
2017-Feb-24 19:33N 44°39' E 037°24'2 1.2
2017-Feb-24 17:28N 44°37' E 037°26'2 1.6
2017-Feb-24 16:29N 44°36' E 037°27'2 1.8
2017-Feb-24 15:24N 44°34' E 037°28'2 2.0
2017-Feb-24 14:34N 44°33' E 037°29'2 2.1
2017-Feb-24 13:33N 44°31' E 037°31'3 3.3
2017-Feb-24 12:34N 44°33' E 037°34'4 3.6
2017-Feb-24 11:33N 44°36' E 037°30'2 1.5
2017-Feb-24 10:32N 44°35' E 037°29'1 1.5
2017-Feb-24 09:34N 44°33' E 037°28'3 3.3
2017-Feb-24 08:34N 44°36' E 037°30'1 0.7
2017-Feb-24 07:32N 44°36' E 037°30'1 1.0
2017-Feb-24 06:34N 44°35' E 037°29'1 0.9
2017-Feb-24 05:33N 44°35' E 037°28'1 0.5
2017-Feb-24 04:31N 44°34' E 037°28'1 0.5
2017-Feb-24 03:32N 44°34' E 037°27'1 0.6
2017-Feb-24 02:32N 44°34' E 037°26'1 0.7
2017-Feb-24 01:34N 44°34' E 037°25'2 1.7
2017-Feb-24 00:33N 44°35' E 037°26'3 2.4
2017-Feb-23 23:31N 44°38' E 037°27'1 1.5
2017-Feb-23 22:33N 44°36' E 037°27'2 1.3
2017-Feb-23 21:19N 44°35' E 037°26'0 0.4
2017-Feb-23 20:33N 44°35' E 037°26'1 0.6
2017-Feb-23 19:33N 44°35' E 037°26'2 1.5
2017-Feb-23 18:33N 44°33' E 037°26'2 1.8
2017-Feb-23 17:30N 44°32' E 037°28'1 1.5
2017-Feb-23 16:33N 44°33' E 037°27'6 5.7
2017-Feb-23 15:34N 44°31' E 037°34'5 4.8
2017-Feb-23 14:34N 44°30' E 037°41'2 2.2
2017-Feb-23 13:34N 44°33' E 037°41'1 1.4
2017-Feb-23 12:34N 44°32' E 037°39'2 1.5
2017-Feb-23 11:33N 44°31' E 037°39'2 1.5
2017-Feb-23 10:34N 44°32' E 037°40'3 2.9
2017-Feb-23 09:33N 44°34' E 037°38'3 3.0
2017-Feb-23 08:33N 44°33' E 037°35'2 1.6
2017-Feb-23 07:33N 44°31' E 037°33'9 8.6
2017-Feb-23 06:33N 44°32' E 037°45'2 1.7
2017-Feb-23 05:33N 44°32' E 037°43'2 1.7
2017-Feb-23 04:33N 44°31' E 037°41'1 1.4
2017-Feb-23 03:33N 44°31' E 037°39'1 1.1
2017-Feb-23 02:33N 44°31' E 037°37'1 1.1
2017-Feb-23 01:33N 44°31' E 037°36'1 0.9
2017-Feb-23 00:33N 44°32' E 037°35'1 0.7
2017-Feb-22 23:33N 44°32' E 037°34'1 0.9
2017-Feb-22 22:33N 44°32' E 037°33'1 1.1
2017-Feb-22 21:33N 44°34' E 037°32'1 1.5
2017-Feb-22 20:33N 44°35' E 037°32'2 1.7
2017-Feb-22 19:33N 44°36' E 037°30'2 1.8
2017-Feb-22 18:33N 44°38' E 037°29'5 4.8
2017-Feb-22 17:33N 44°33' E 037°32'5 5.2
2017-Feb-22 16:33N 44°31' E 037°38'1 1.0
2017-Feb-22 15:33N 44°32' E 037°37'1 0.9
2017-Feb-22 14:33N 44°32' E 037°36'1 0.8
2017-Feb-22 13:33N 44°32' E 037°35'1 1.0
2017-Feb-22 12:34N 44°32' E 037°34'4 3.7
2017-Feb-22 11:34N 44°32' E 037°39'1 1.4
2017-Feb-22 10:34N 44°33' E 037°37'2 1.6
2017-Feb-22 09:34N 44°33' E 037°35'1 1.2
2017-Feb-22 08:34N 44°32' E 037°34'7 6.9
2017-Feb-22 07:33N 44°32' E 037°43'2 1.9
2017-Feb-22 06:33N 44°33' E 037°46'2 2.5
2017-Feb-22 05:34N 44°32' E 037°43'2 2.2
2017-Feb-22 04:33N 44°31' E 037°40'2 1.8
2017-Feb-22 03:34N 44°31' E 037°37'1 0.6
2017-Feb-22 02:33N 44°30' E 037°38'7 6.8
2017-Feb-22 01:34N 44°31' E 037°47'3 3.2
2017-Feb-22 00:34N 44°32' E 037°51'2 2.3
2017-Feb-21 23:34N 44°32' E 037°48'2 2.0
2017-Feb-21 22:33N 44°32' E 037°45'2 1.7
2017-Feb-21 21:33N 44°32' E 037°43'2 1.6
2017-Feb-21 20:34N 44°32' E 037°41'1 1.4
2017-Feb-21 19:33N 44°32' E 037°39'1 1.4
2017-Feb-21 18:34N 44°33' E 037°37'2 1.5
2017-Feb-21 17:34N 44°33' E 037°35'1 1.4
2017-Feb-21 16:33N 44°34' E 037°33'2 1.5
2017-Feb-21 15:34N 44°34' E 037°31'3 3.3
2017-Feb-21 14:34N 44°37' E 037°33'0 0.4
2017-Feb-21 13:34N 44°36' E 037°33'2 1.7
2017-Feb-21 12:34N 44°35' E 037°32'2 1.9
2017-Feb-21 11:34N 44°33' E 037°32'2 1.8
2017-Feb-21 10:33N 44°31' E 037°33'2 1.6
2017-Feb-21 09:33N 44°30' E 037°34'5 5.0
2017-Feb-21 08:33N 44°35' E 037°35'0 0.3
2017-Feb-21 07:33N 44°35' E 037°35'2 1.6
2017-Feb-21 06:33N 44°33' E 037°36'2 1.5
2017-Feb-21 05:33N 44°32' E 037°36'4 4.3
2017-Feb-21 04:33N 44°36' E 037°33'1 1.1
2017-Feb-21 03:33N 44°37' E 037°32'2 1.8
2017-Feb-21 02:33N 44°35' E 037°33'1 1.5
2017-Feb-21 01:33N 44°34' E 037°35'1 1.3
2017-Feb-21 00:33N 44°33' E 037°36'0 0.5
2017-Feb-20 23:33N 44°33' E 037°36'8 8.2
2017-Feb-20 22:32N 44°36' E 037°25'1 1.1
2017-Feb-20 21:30N 44°37' E 037°24'2 1.6
2017-Feb-20 20:33N 44°36' E 037°26'1 1.5
2017-Feb-20 19:33N 44°36' E 037°28'2 1.5
2017-Feb-20 18:33N 44°35' E 037°30'2 1.6
2017-Feb-20 17:33N 44°35' E 037°33'2 1.5
2017-Feb-20 16:33N 44°35' E 037°35'1 0.7
2017-Feb-20 15:33N 44°35' E 037°36'5 4.9
2017-Feb-20 14:33N 44°34' E 037°29'4 3.8
2017-Feb-20 13:33N 44°34' E 037°23'5 5.5
2017-Feb-20 12:34N 44°31' E 037°30'2 2.2
2017-Feb-20 11:33N 44°33' E 037°29'2 2.3
2017-Feb-20 10:33N 44°32' E 037°32'2 2.2
2017-Feb-20 09:33N 44°32' E 037°35'2 2.0
2017-Feb-20 08:33N 44°32' E 037°38'2 2.1
2017-Feb-20 07:33N 44°32' E 037°41'6 5.6
2017-Feb-20 06:33N 44°34' E 037°34'7 7.4
2017-Feb-20 05:33N 44°36' E 037°24'1 1.2
2017-Feb-20 04:34N 44°35' E 037°25'2 1.9
2017-Feb-20 03:33N 44°35' E 037°28'2 1.8
2017-Feb-20 02:33N 44°35' E 037°30'2 1.8
2017-Feb-20 01:33N 44°34' E 037°33'2 1.8
2017-Feb-20 00:34N 44°34' E 037°35'2 1.7
2017-Feb-19 23:33N 44°33' E 037°38'1 1.4
2017-Feb-19 22:33N 44°33' E 037°40'5 5.4
2017-Feb-19 21:33N 44°34' E 037°32'9 3.8
2017-Feb-19 19:16N 44°41' E 037°23'1 1.3
2017-Feb-19 18:32N 44°40' E 037°25'3 1.3
2017-Feb-19 16:33N 44°38' E 037°27'1 1.2
2017-Feb-19 15:30N 44°37' E 037°29'1 1.3
2017-Feb-19 14:33N 44°37' E 037°30'2 1.5
2017-Feb-19 13:30N 44°36' E 037°32'2 1.6
2017-Feb-19 12:33N 44°35' E 037°33'2 1.7
2017-Feb-19 11:33N 44°34' E 037°35'2 1.6
2017-Feb-19 10:33N 44°33' E 037°37'2 1.6
2017-Feb-19 09:33N 44°32' E 037°39'1 0.7
2017-Feb-19 08:33N 44°32' E 037°40'1 1.0
2017-Feb-19 07:33N 44°33' E 037°40'3 2.5
2017-Feb-19 06:34N 44°34' E 037°36'9 8.5
2017-Feb-19 05:33N 44°36' E 037°25'1 0.1
2017-Feb-19 00:29N 44°37' E 037°26'2 2.3
2017-Feb-18 23:28N 44°35' E 037°29'3 2.4
2017-Feb-18 22:19N 44°34' E 037°32'2 2.5
2017-Feb-18 21:33N 44°33' E 037°34'2 2.5
2017-Feb-18 20:33N 44°32' E 037°37'6 6.0
2017-Feb-18 19:33N 44°34' E 037°29'4 1.2
2017-Feb-18 16:32N 44°38' E 037°28'3 2.4
2017-Feb-18 15:29N 44°36' E 037°31'2 2.7
2017-Feb-18 14:33N 44°35' E 037°34'2 2.3
2017-Feb-18 13:33N 44°33' E 037°35'6 5.9
2017-Feb-18 12:33N 44°34' E 037°27'8 7.2
2017-Feb-18 11:29N 44°39' E 037°18'1 0.4
2017-Feb-18 09:06N 44°40' E 037°18'2 2.4
2017-Feb-18 08:22N 44°39' E 037°20'2 2.5
2017-Feb-18 07:32N 44°38' E 037°23'3 2.5
2017-Feb-18 06:33N 44°37' E 037°26'2 0.2
2017-Feb-17 20:07N 44°37' E 037°23'0 0.5
2017-Feb-17 19:20N 44°37' E 037°24'0 0.4
2017-Feb-17 18:33N 44°37' E 037°24'0 0.3
2017-Feb-17 17:23N 44°37' E 037°25'0 0.2
2017-Feb-17 16:29N 44°36' E 037°25'0 0.2
2017-Feb-17 15:18N 44°36' E 037°25'0 0.2
2017-Feb-17 14:28N 44°36' E 037°25'0 0.3
2017-Feb-17 13:33N 44°36' E 037°26'0 0.2
2017-Feb-17 12:22N 44°36' E 037°26'0 0.3
2017-Feb-17 11:32N 44°36' E 037°26'0 0.4
2017-Feb-17 10:33N 44°36' E 037°27'1 0.4
2017-Feb-17 09:26N 44°36' E 037°28'0 0.3
2017-Feb-17 08:33N 44°36' E 037°28'1 0.6
2017-Feb-17 07:33N 44°37' E 037°28'1 0.7
2017-Feb-17 06:33N 44°38' E 037°28'  

Dump ship's entire track history